sensor_id;sensor_type;location;lat;lon;timestamp;temperature;humidity
15609;DHT22;64278;45.642;13.756;2023-04-24T00:00:56;22.80;56.30
15609;DHT22;64278;45.642;13.756;2023-04-24T00:03:25;22.80;56.30
15609;DHT22;64278;45.642;13.756;2023-04-24T00:05:51;22.70;56.20
15609;DHT22;64278;45.642;13.756;2023-04-24T00:08:17;22.70;56.20
15609;DHT22;64278;45.642;13.756;2023-04-24T00:10:43;22.80;56.20
15609;DHT22;64278;45.642;13.756;2023-04-24T00:13:09;22.70;56.20
15609;DHT22;64278;45.642;13.756;2023-04-24T00:15:34;22.70;56.20
15609;DHT22;64278;45.642;13.756;2023-04-24T00:18:00;22.70;56.20
15609;DHT22;64278;45.642;13.756;2023-04-24T00:20:27;22.70;56.80
15609;DHT22;64278;45.642;13.756;2023-04-24T00:22:54;22.70;56.20
15609;DHT22;64278;45.642;13.756;2023-04-24T00:25:20;22.70;56.20
15609;DHT22;64278;45.642;13.756;2023-04-24T00:27:46;22.70;56.10
15609;DHT22;64278;45.642;13.756;2023-04-24T00:30:12;22.70;56.10
15609;DHT22;64278;45.642;13.756;2023-04-24T00:32:37;22.70;56.10
15609;DHT22;64278;45.642;13.756;2023-04-24T00:35:03;22.70;56.10
15609;DHT22;64278;45.642;13.756;2023-04-24T00:37:29;22.70;56.10
15609;DHT22;64278;45.642;13.756;2023-04-24T00:39:55;22.70;56.10
15609;DHT22;64278;45.642;13.756;2023-04-24T00:42:21;22.70;56.10
15609;DHT22;64278;45.642;13.756;2023-04-24T00:44:47;22.70;56.10
15609;DHT22;64278;45.642;13.756;2023-04-24T00:47:12;22.70;56.10
15609;DHT22;64278;45.642;13.756;2023-04-24T00:49:38;22.70;56.00
15609;DHT22;64278;45.642;13.756;2023-04-24T00:52:04;22.70;56.10
15609;DHT22;64278;45.642;13.756;2023-04-24T00:54:33;22.70;56.00
15609;DHT22;64278;45.642;13.756;2023-04-24T00:56:58;22.70;56.10
15609;DHT22;64278;45.642;13.756;2023-04-24T00:59:24;22.70;56.00
15609;DHT22;64278;45.642;13.756;2023-04-24T01:01:50;22.70;56.10
15609;DHT22;64278;45.642;13.756;2023-04-24T01:04:17;22.60;56.00
15609;DHT22;64278;45.642;13.756;2023-04-24T01:06:44;22.60;56.00
15609;DHT22;64278;45.642;13.756;2023-04-24T01:09:11;22.60;56.00
15609;DHT22;64278;45.642;13.756;2023-04-24T01:11:37;22.70;56.00
15609;DHT22;64278;45.642;13.756;2023-04-24T01:14:03;22.60;56.00
15609;DHT22;64278;45.642;13.756;2023-04-24T01:16:29;22.60;56.00
15609;DHT22;64278;45.642;13.756;2023-04-24T01:18:55;22.60;56.00
15609;DHT22;64278;45.642;13.756;2023-04-24T01:21:21;22.60;56.10
15609;DHT22;64278;45.642;13.756;2023-04-24T01:23:49;22.60;56.00
15609;DHT22;64278;45.642;13.756;2023-04-24T01:26:17;22.60;56.10
15609;DHT22;64278;45.642;13.756;2023-04-24T01:28:42;22.60;56.10
15609;DHT22;64278;45.642;13.756;2023-04-24T01:31:08;22.60;56.10
15609;DHT22;64278;45.642;13.756;2023-04-24T01:33:34;22.60;56.10
15609;DHT22;64278;45.642;13.756;2023-04-24T01:36:00;22.60;56.10
15609;DHT22;64278;45.642;13.756;2023-04-24T01:38:26;22.60;56.10
15609;DHT22;64278;45.642;13.756;2023-04-24T01:40:52;22.60;56.10
15609;DHT22;64278;45.642;13.756;2023-04-24T01:43:18;22.60;56.20
15609;DHT22;64278;45.642;13.756;2023-04-24T01:45:44;22.60;56.20
15609;DHT22;64278;45.642;13.756;2023-04-24T01:48:12;22.60;56.20
15609;DHT22;64278;45.642;13.756;2023-04-24T01:50:37;22.60;56.10
15609;DHT22;64278;45.642;13.756;2023-04-24T01:53:03;22.60;56.20
15609;DHT22;64278;45.642;13.756;2023-04-24T01:55:29;22.50;56.10
15609;DHT22;64278;45.642;13.756;2023-04-24T01:57:56;22.50;56.10
15609;DHT22;64278;45.642;13.756;2023-04-24T02:00:22;22.50;56.10
15609;DHT22;64278;45.642;13.756;2023-04-24T02:02:48;22.50;56.20
15609;DHT22;64278;45.642;13.756;2023-04-24T02:05:13;22.50;56.20
15609;DHT22;64278;45.642;13.756;2023-04-24T02:07:39;22.50;56.20
15609;DHT22;64278;45.642;13.756;2023-04-24T02:10:05;22.50;56.20
15609;DHT22;64278;45.642;13.756;2023-04-24T02:12:31;22.50;56.20
15609;DHT22;64278;45.642;13.756;2023-04-24T02:14:57;22.50;56.20
15609;DHT22;64278;45.642;13.756;2023-04-24T02:17:23;22.50;56.20
15609;DHT22;64278;45.642;13.756;2023-04-24T02:19:49;22.50;56.20
15609;DHT22;64278;45.642;13.756;2023-04-24T02:22:14;22.50;56.30
15609;DHT22;64278;45.642;13.756;2023-04-24T02:24:41;22.50;56.30
15609;DHT22;64278;45.642;13.756;2023-04-24T02:27:06;22.50;56.40
15609;DHT22;64278;45.642;13.756;2023-04-24T02:29:32;22.50;56.40
15609;DHT22;64278;45.642;13.756;2023-04-24T02:31:58;22.50;56.40
15609;DHT22;64278;45.642;13.756;2023-04-24T02:34:23;22.50;56.40
15609;DHT22;64278;45.642;13.756;2023-04-24T02:36:49;22.50;56.40
15609;DHT22;64278;45.642;13.756;2023-04-24T02:39:15;22.50;56.40
15609;DHT22;64278;45.642;13.756;2023-04-24T02:41:44;22.40;56.40
15609;DHT22;64278;45.642;13.756;2023-04-24T02:44:09;22.40;56.40
15609;DHT22;64278;45.642;13.756;2023-04-24T02:46:35;22.40;56.50
15609;DHT22;64278;45.642;13.756;2023-04-24T02:49:01;22.40;56.50
15609;DHT22;64278;45.642;13.756;2023-04-24T02:51:26;22.40;56.50
15609;DHT22;64278;45.642;13.756;2023-04-24T02:53:52;22.40;56.50
15609;DHT22;64278;45.642;13.756;2023-04-24T02:56:18;22.40;56.50
15609;DHT22;64278;45.642;13.756;2023-04-24T02:58:44;22.40;56.50
15609;DHT22;64278;45.642;13.756;2023-04-24T03:01:10;22.40;56.60
15609;DHT22;64278;45.642;13.756;2023-04-24T03:03:36;22.40;56.60
15609;DHT22;64278;45.642;13.756;2023-04-24T03:06:02;22.40;57.30
15609;DHT22;64278;45.642;13.756;2023-04-24T03:08:31;22.40;56.60
15609;DHT22;64278;45.642;13.756;2023-04-24T03:10:57;22.40;56.70
15609;DHT22;64278;45.642;13.756;2023-04-24T03:13:22;22.40;56.70
15609;DHT22;64278;45.642;13.756;2023-04-24T03:15:48;22.40;56.70
15609;DHT22;64278;45.642;13.756;2023-04-24T03:18:14;22.40;56.70
15609;DHT22;64278;45.642;13.756;2023-04-24T03:20:39;22.40;56.70
15609;DHT22;64278;45.642;13.756;2023-04-24T03:23:05;22.40;56.80
15609;DHT22;64278;45.642;13.756;2023-04-24T03:25:31;22.40;56.80
15609;DHT22;64278;45.642;13.756;2023-04-24T03:27:56;22.40;56.80
15609;DHT22;64278;45.642;13.756;2023-04-24T03:30:22;22.40;56.80
15609;DHT22;64278;45.642;13.756;2023-04-24T03:32:48;22.40;56.80
15609;DHT22;64278;45.642;13.756;2023-04-24T03:35:13;22.40;56.80
15609;DHT22;64278;45.642;13.756;2023-04-24T03:37:39;22.40;56.80
15609;DHT22;64278;45.642;13.756;2023-04-24T03:40:05;22.40;56.80
15609;DHT22;64278;45.642;13.756;2023-04-24T03:42:32;22.40;56.80
15609;DHT22;64278;45.642;13.756;2023-04-24T03:44:58;22.30;56.80
15609;DHT22;64278;45.642;13.756;2023-04-24T03:47:23;22.40;56.80
15609;DHT22;64278;45.642;13.756;2023-04-24T03:49:49;22.40;56.80
15609;DHT22;64278;45.642;13.756;2023-04-24T03:52:15;22.30;56.80
15609;DHT22;64278;45.642;13.756;2023-04-24T03:54:41;22.30;56.80
15609;DHT22;64278;45.642;13.756;2023-04-24T03:57:06;22.30;56.80
15609;DHT22;64278;45.642;13.756;2023-04-24T03:59:32;22.30;56.70
15609;DHT22;64278;45.642;13.756;2023-04-24T04:01:58;22.30;56.80
15609;DHT22;64278;45.642;13.756;2023-04-24T04:04:23;22.30;56.80
15609;DHT22;64278;45.642;13.756;2023-04-24T04:06:49;22.30;56.80
15609;DHT22;64278;45.642;13.756;2023-04-24T04:09:15;22.30;56.80
15609;DHT22;64278;45.642;13.756;2023-04-24T04:11:40;22.30;56.80
15609;DHT22;64278;45.642;13.756;2023-04-24T04:14:06;22.30;56.80
15609;DHT22;64278;45.642;13.756;2023-04-24T04:16:32;22.30;56.90
15609;DHT22;64278;45.642;13.756;2023-04-24T04:18:57;22.30;56.80
15609;DHT22;64278;45.642;13.756;2023-04-24T04:21:24;22.30;56.80
15609;DHT22;64278;45.642;13.756;2023-04-24T04:23:49;22.30;56.80
15609;DHT22;64278;45.642;13.756;2023-04-24T04:26:15;22.30;56.90
15609;DHT22;64278;45.642;13.756;2023-04-24T04:28:41;22.30;56.90
15609;DHT22;64278;45.642;13.756;2023-04-24T04:31:07;22.30;56.90
15609;DHT22;64278;45.642;13.756;2023-04-24T04:33:33;22.30;57.00
15609;DHT22;64278;45.642;13.756;2023-04-24T04:35:59;22.30;56.90
15609;DHT22;64278;45.642;13.756;2023-04-24T04:38:25;22.30;56.90
15609;DHT22;64278;45.642;13.756;2023-04-24T04:40:55;22.30;56.90
15609;DHT22;64278;45.642;13.756;2023-04-24T04:43:23;22.30;56.90
15609;DHT22;64278;45.642;13.756;2023-04-24T04:45:50;22.30;57.00
15609;DHT22;64278;45.642;13.756;2023-04-24T04:48:17;22.30;57.00
15609;DHT22;64278;45.642;13.756;2023-04-24T04:50:43;22.30;57.00
15609;DHT22;64278;45.642;13.756;2023-04-24T04:53:08;22.30;57.00
15609;DHT22;64278;45.642;13.756;2023-04-24T04:55:34;22.30;57.00
15609;DHT22;64278;45.642;13.756;2023-04-24T04:58:00;22.20;56.90
15609;DHT22;64278;45.642;13.756;2023-04-24T05:00:26;22.30;57.00
15609;DHT22;64278;45.642;13.756;2023-04-24T05:02:52;22.30;57.00
15609;DHT22;64278;45.642;13.756;2023-04-24T05:05:18;22.20;56.90
15609;DHT22;64278;45.642;13.756;2023-04-24T05:07:44;22.20;56.90
15609;DHT22;64278;45.642;13.756;2023-04-24T05:10:10;22.30;56.90
15609;DHT22;64278;45.642;13.756;2023-04-24T05:12:36;22.30;56.90
15609;DHT22;64278;45.642;13.756;2023-04-24T05:15:02;22.20;56.90
15609;DHT22;64278;45.642;13.756;2023-04-24T05:17:28;22.20;56.90
15609;DHT22;64278;45.642;13.756;2023-04-24T05:19:54;22.20;56.90
15609;DHT22;64278;45.642;13.756;2023-04-24T05:22:20;22.20;56.90
15609;DHT22;64278;45.642;13.756;2023-04-24T05:24:46;22.20;56.90
15609;DHT22;64278;45.642;13.756;2023-04-24T05:27:12;22.20;56.90
15609;DHT22;64278;45.642;13.756;2023-04-24T05:29:38;22.20;56.90
15609;DHT22;64278;45.642;13.756;2023-04-24T05:32:04;22.20;56.90
15609;DHT22;64278;45.642;13.756;2023-04-24T05:34:30;22.20;56.90
15609;DHT22;64278;45.642;13.756;2023-04-24T05:36:55;22.20;57.00
15609;DHT22;64278;45.642;13.756;2023-04-24T05:39:21;22.20;57.00
15609;DHT22;64278;45.642;13.756;2023-04-24T05:41:47;22.20;57.00
15609;DHT22;64278;45.642;13.756;2023-04-24T05:44:12;22.20;57.00
15609;DHT22;64278;45.642;13.756;2023-04-24T05:46:38;22.20;57.00
15609;DHT22;64278;45.642;13.756;2023-04-24T05:49:04;22.20;57.00
15609;DHT22;64278;45.642;13.756;2023-04-24T05:51:29;22.20;57.00
15609;DHT22;64278;45.642;13.756;2023-04-24T05:53:57;22.20;57.00
15609;DHT22;64278;45.642;13.756;2023-04-24T05:56:22;22.20;57.00
15609;DHT22;64278;45.642;13.756;2023-04-24T05:58:48;22.20;57.00
15609;DHT22;64278;45.642;13.756;2023-04-24T06:01:14;22.20;57.00
15609;DHT22;64278;45.642;13.756;2023-04-24T06:03:40;22.20;57.10
15609;DHT22;64278;45.642;13.756;2023-04-24T06:06:07;22.20;57.10
15609;DHT22;64278;45.642;13.756;2023-04-24T06:08:32;22.20;57.10
15609;DHT22;64278;45.642;13.756;2023-04-24T06:10:59;22.20;57.00
15609;DHT22;64278;45.642;13.756;2023-04-24T06:13:24;22.20;57.00
15609;DHT22;64278;45.642;13.756;2023-04-24T06:15:50;22.20;57.00
15609;DHT22;64278;45.642;13.756;2023-04-24T06:18:16;22.20;57.00
15609;DHT22;64278;45.642;13.756;2023-04-24T06:20:43;22.10;57.00
15609;DHT22;64278;45.642;13.756;2023-04-24T06:23:09;22.20;57.00
15609;DHT22;64278;45.642;13.756;2023-04-24T06:25:34;22.10;57.60
15609;DHT22;64278;45.642;13.756;2023-04-24T06:28:00;22.10;57.00
15609;DHT22;64278;45.642;13.756;2023-04-24T06:30:27;22.10;56.90
15609;DHT22;64278;45.642;13.756;2023-04-24T06:32:53;22.10;56.90
15609;DHT22;64278;45.642;13.756;2023-04-24T06:35:19;22.10;56.90
15609;DHT22;64278;45.642;13.756;2023-04-24T06:37:45;22.10;56.90
15609;DHT22;64278;45.642;13.756;2023-04-24T06:40:11;22.20;56.90
15609;DHT22;64278;45.642;13.756;2023-04-24T06:42:36;22.10;56.90
15609;DHT22;64278;45.642;13.756;2023-04-24T06:45:02;22.10;56.90
15609;DHT22;64278;45.642;13.756;2023-04-24T06:47:29;22.10;57.10
15609;DHT22;64278;45.642;13.756;2023-04-24T06:49:54;22.10;57.30
15609;DHT22;64278;45.642;13.756;2023-04-24T06:52:21;22.10;57.30
15609;DHT22;64278;45.642;13.756;2023-04-24T06:54:46;22.00;57.30
15609;DHT22;64278;45.642;13.756;2023-04-24T06:57:12;22.00;57.30
15609;DHT22;64278;45.642;13.756;2023-04-24T06:59:38;22.00;57.30
15609;DHT22;64278;45.642;13.756;2023-04-24T07:02:03;22.10;57.40
15609;DHT22;64278;45.642;13.756;2023-04-24T07:04:30;22.00;57.40
15609;DHT22;64278;45.642;13.756;2023-04-24T07:06:56;22.10;57.50
15609;DHT22;64278;45.642;13.756;2023-04-24T07:09:24;22.00;57.50
15609;DHT22;64278;45.642;13.756;2023-04-24T07:11:53;22.00;57.50
15609;DHT22;64278;45.642;13.756;2023-04-24T07:14:19;22.00;57.60
15609;DHT22;64278;45.642;13.756;2023-04-24T07:16:46;22.00;57.60
15609;DHT22;64278;45.642;13.756;2023-04-24T07:19:12;22.00;57.70
15609;DHT22;64278;45.642;13.756;2023-04-24T07:21:38;22.00;57.80
15609;DHT22;64278;45.642;13.756;2023-04-24T07:24:03;22.00;57.60
15609;DHT22;64278;45.642;13.756;2023-04-24T07:26:30;22.00;57.70
15609;DHT22;64278;45.642;13.756;2023-04-24T07:28:56;22.00;57.70
15609;DHT22;64278;45.642;13.756;2023-04-24T07:31:22;22.00;57.70
15609;DHT22;64278;45.642;13.756;2023-04-24T07:33:48;22.00;57.70
15609;DHT22;64278;45.642;13.756;2023-04-24T07:36:14;22.00;57.80
15609;DHT22;64278;45.642;13.756;2023-04-24T07:38:47;22.00;57.90
15609;DHT22;64278;45.642;13.756;2023-04-24T07:41:13;22.00;57.90
15609;DHT22;64278;45.642;13.756;2023-04-24T07:43:40;22.00;58.00
15609;DHT22;64278;45.642;13.756;2023-04-24T07:46:06;22.00;58.00
15609;DHT22;64278;45.642;13.756;2023-04-24T07:48:32;22.10;58.10
15609;DHT22;64278;45.642;13.756;2023-04-24T07:50:58;22.10;58.20
15609;DHT22;64278;45.642;13.756;2023-04-24T07:53:23;22.10;58.30
15609;DHT22;64278;45.642;13.756;2023-04-24T07:55:49;22.10;58.30
15609;DHT22;64278;45.642;13.756;2023-04-24T07:58:15;22.10;58.40
15609;DHT22;64278;45.642;13.756;2023-04-24T08:00:40;22.10;58.50
15609;DHT22;64278;45.642;13.756;2023-04-24T08:03:06;22.10;58.50
15609;DHT22;64278;45.642;13.756;2023-04-24T08:05:32;22.10;58.50
15609;DHT22;64278;45.642;13.756;2023-04-24T08:07:58;22.10;58.50
15609;DHT22;64278;45.642;13.756;2023-04-24T08:10:24;22.10;58.60
15609;DHT22;64278;45.642;13.756;2023-04-24T08:12:51;22.10;58.60
15609;DHT22;64278;45.642;13.756;2023-04-24T08:15:17;22.10;58.70
15609;DHT22;64278;45.642;13.756;2023-04-24T08:17:42;22.10;58.80
15609;DHT22;64278;45.642;13.756;2023-04-24T08:20:10;22.10;58.70
15609;DHT22;64278;45.642;13.756;2023-04-24T08:22:42;22.10;58.80
15609;DHT22;64278;45.642;13.756;2023-04-24T08:25:10;22.10;58.80
15609;DHT22;64278;45.642;13.756;2023-04-24T08:27:36;22.10;58.80
15609;DHT22;64278;45.642;13.756;2023-04-24T08:30:03;22.10;58.90
15609;DHT22;64278;45.642;13.756;2023-04-24T08:32:29;22.10;58.90
15609;DHT22;64278;45.642;13.756;2023-04-24T08:34:58;22.10;58.80
15609;DHT22;64278;45.642;13.756;2023-04-24T08:37:26;22.10;58.80
15609;DHT22;64278;45.642;13.756;2023-04-24T08:39:52;22.00;58.80
15609;DHT22;64278;45.642;13.756;2023-04-24T08:42:19;22.10;58.80
15609;DHT22;64278;45.642;13.756;2023-04-24T08:44:45;22.00;58.70
15609;DHT22;64278;45.642;13.756;2023-04-24T08:47:11;22.00;58.70
15609;DHT22;64278;45.642;13.756;2023-04-24T08:49:38;22.00;58.70
15609;DHT22;64278;45.642;13.756;2023-04-24T08:52:05;22.00;58.70
15609;DHT22;64278;45.642;13.756;2023-04-24T08:54:32;22.00;58.60
15609;DHT22;64278;45.642;13.756;2023-04-24T08:57:00;22.00;58.60
15609;DHT22;64278;45.642;13.756;2023-04-24T08:59:31;22.00;58.70
15609;DHT22;64278;45.642;13.756;2023-04-24T09:01:59;22.00;58.70
15609;DHT22;64278;45.642;13.756;2023-04-24T09:04:25;22.00;58.70
15609;DHT22;64278;45.642;13.756;2023-04-24T09:06:56;22.00;58.70
15609;DHT22;64278;45.642;13.756;2023-04-24T09:09:23;22.00;58.70
15609;DHT22;64278;45.642;13.756;2023-04-24T09:11:50;22.00;58.70
15609;DHT22;64278;45.642;13.756;2023-04-24T09:14:17;22.00;58.70
15609;DHT22;64278;45.642;13.756;2023-04-24T09:16:43;22.00;58.70
15609;DHT22;64278;45.642;13.756;2023-04-24T09:19:09;22.00;58.80
15609;DHT22;64278;45.642;13.756;2023-04-24T09:21:35;21.90;58.80
15609;DHT22;64278;45.642;13.756;2023-04-24T09:24:08;22.00;58.80
15609;DHT22;64278;45.642;13.756;2023-04-24T09:26:39;22.00;58.80
15609;DHT22;64278;45.642;13.756;2023-04-24T09:29:05;22.00;58.80
15609;DHT22;64278;45.642;13.756;2023-04-24T09:31:31;22.00;58.80
15609;DHT22;64278;45.642;13.756;2023-04-24T09:34:02;21.90;58.80
15609;DHT22;64278;45.642;13.756;2023-04-24T09:36:36;22.00;59.00
15609;DHT22;64278;45.642;13.756;2023-04-24T09:39:11;22.00;59.40
15609;DHT22;64278;45.642;13.756;2023-04-24T09:41:49;21.90;59.70
15609;DHT22;64278;45.642;13.756;2023-04-24T09:44:17;22.00;59.80
15609;DHT22;64278;45.642;13.756;2023-04-24T09:46:44;22.00;59.80
15609;DHT22;64278;45.642;13.756;2023-04-24T09:49:14;22.00;59.80
15609;DHT22;64278;45.642;13.756;2023-04-24T09:51:40;22.00;59.90
15609;DHT22;64278;45.642;13.756;2023-04-24T09:54:20;22.00;60.10
15609;DHT22;64278;45.642;13.756;2023-04-24T09:56:48;22.00;60.30
15609;DHT22;64278;45.642;13.756;2023-04-24T09:59:16;22.00;60.50
15609;DHT22;64278;45.642;13.756;2023-04-24T10:01:42;22.00;60.50
15609;DHT22;64278;45.642;13.756;2023-04-24T10:04:27;22.00;60.40
15609;DHT22;64278;45.642;13.756;2023-04-24T10:06:55;22.00;60.60
15609;DHT22;64278;45.642;13.756;2023-04-24T10:09:23;22.00;60.60
15609;DHT22;64278;45.642;13.756;2023-04-24T10:11:52;22.10;60.80
15609;DHT22;64278;45.642;13.756;2023-04-24T10:14:23;22.00;60.70
15609;DHT22;64278;45.642;13.756;2023-04-24T10:16:50;22.00;60.60
15609;DHT22;64278;45.642;13.756;2023-04-24T10:19:17;22.00;60.50
15609;DHT22;64278;45.642;13.756;2023-04-24T10:21:46;22.00;60.40
15609;DHT22;64278;45.642;13.756;2023-04-24T10:24:16;22.00;60.30
15609;DHT22;64278;45.642;13.756;2023-04-24T10:26:44;22.00;60.20
15609;DHT22;64278;45.642;13.756;2023-04-24T10:29:11;22.00;60.10
15609;DHT22;64278;45.642;13.756;2023-04-24T10:31:38;22.00;60.00
15609;DHT22;64278;45.642;13.756;2023-04-24T10:34:05;22.00;59.90
15609;DHT22;64278;45.642;13.756;2023-04-24T10:36:33;21.90;59.80
15609;DHT22;64278;45.642;13.756;2023-04-24T10:39:01;22.00;59.80
15609;DHT22;64278;45.642;13.756;2023-04-24T10:41:27;21.90;59.70
15609;DHT22;64278;45.642;13.756;2023-04-24T10:44:35;21.90;59.60
15609;DHT22;64278;45.642;13.756;2023-04-24T10:47:01;21.90;59.60
15609;DHT22;64278;45.642;13.756;2023-04-24T10:49:30;21.90;59.60
15609;DHT22;64278;45.642;13.756;2023-04-24T10:52:03;21.90;59.60
15609;DHT22;64278;45.642;13.756;2023-04-24T10:54:41;21.90;59.60
15609;DHT22;64278;45.642;13.756;2023-04-24T10:59:46;21.90;59.60
15609;DHT22;64278;45.642;13.756;2023-04-24T11:02:14;21.90;59.60
15609;DHT22;64278;45.642;13.756;2023-04-24T11:04:40;21.90;59.60
15609;DHT22;64278;45.642;13.756;2023-04-24T11:07:09;21.90;59.60
15609;DHT22;64278;45.642;13.756;2023-04-24T11:09:36;21.90;59.60
15609;DHT22;64278;45.642;13.756;2023-04-24T11:12:06;21.90;59.50
15609;DHT22;64278;45.642;13.756;2023-04-24T11:17:36;21.90;59.50
15609;DHT22;64278;45.642;13.756;2023-04-24T11:20:07;21.90;59.50
15609;DHT22;64278;45.642;13.756;2023-04-24T11:22:35;21.90;59.50
15609;DHT22;64278;45.642;13.756;2023-04-24T11:25:02;21.90;59.50
15609;DHT22;64278;45.642;13.756;2023-04-24T11:27:38;21.90;59.50
15609;DHT22;64278;45.642;13.756;2023-04-24T11:30:05;21.90;59.50
15609;DHT22;64278;45.642;13.756;2023-04-24T11:32:39;21.90;59.50
15609;DHT22;64278;45.642;13.756;2023-04-24T11:35:15;21.90;59.50
15609;DHT22;64278;45.642;13.756;2023-04-24T11:37:46;21.90;59.50
15609;DHT22;64278;45.642;13.756;2023-04-24T11:40:13;21.90;59.50
15609;DHT22;64278;45.642;13.756;2023-04-24T11:42:46;21.90;59.50
15609;DHT22;64278;45.642;13.756;2023-04-24T11:45:17;21.90;59.50
15609;DHT22;64278;45.642;13.756;2023-04-24T11:47:44;21.90;59.50
15609;DHT22;64278;45.642;13.756;2023-04-24T11:50:14;21.90;59.50
15609;DHT22;64278;45.642;13.756;2023-04-24T11:52:43;21.90;59.50
15609;DHT22;64278;45.642;13.756;2023-04-24T11:55:28;21.90;59.50
15609;DHT22;64278;45.642;13.756;2023-04-24T11:57:58;21.90;59.50
15609;DHT22;64278;45.642;13.756;2023-04-24T12:00:26;21.80;59.30
15609;DHT22;64278;45.642;13.756;2023-04-24T12:03:06;21.90;59.40
15609;DHT22;64278;45.642;13.756;2023-04-24T12:05:32;21.90;59.40
15609;DHT22;64278;45.642;13.756;2023-04-24T12:07:58;21.90;59.40
15609;DHT22;64278;45.642;13.756;2023-04-24T12:10:26;21.80;59.40
15609;DHT22;64278;45.642;13.756;2023-04-24T12:12:53;21.80;59.30
15609;DHT22;64278;45.642;13.756;2023-04-24T12:15:20;21.80;59.30
15609;DHT22;64278;45.642;13.756;2023-04-24T12:17:46;21.80;59.40
15609;DHT22;64278;45.642;13.756;2023-04-24T12:20:12;21.90;59.40
15609;DHT22;64278;45.642;13.756;2023-04-24T12:22:45;21.80;59.40
15609;DHT22;64278;45.642;13.756;2023-04-24T12:25:12;21.80;59.30
15609;DHT22;64278;45.642;13.756;2023-04-24T12:27:37;21.80;59.30
15609;DHT22;64278;45.642;13.756;2023-04-24T12:30:05;21.80;59.30
15609;DHT22;64278;45.642;13.756;2023-04-24T12:32:31;21.80;59.30
15609;DHT22;64278;45.642;13.756;2023-04-24T12:34:57;21.80;59.40
15609;DHT22;64278;45.642;13.756;2023-04-24T12:37:26;21.80;59.60
15609;DHT22;64278;45.642;13.756;2023-04-24T12:42:28;21.80;59.70
15609;DHT22;64278;45.642;13.756;2023-04-24T12:45:03;21.80;59.70
15609;DHT22;64278;45.642;13.756;2023-04-24T12:47:31;21.80;59.80
15609;DHT22;64278;45.642;13.756;2023-04-24T12:49:57;21.80;59.90
15609;DHT22;64278;45.642;13.756;2023-04-24T12:52:24;21.80;60.00
15609;DHT22;64278;45.642;13.756;2023-04-24T12:54:53;21.90;60.20
15609;DHT22;64278;45.642;13.756;2023-04-24T12:57:19;21.90;60.30
15609;DHT22;64278;45.642;13.756;2023-04-24T12:59:44;21.80;60.50
15609;DHT22;64278;45.642;13.756;2023-04-24T13:02:11;21.90;60.70
15609;DHT22;64278;45.642;13.756;2023-04-24T13:04:37;21.90;60.80
15609;DHT22;64278;45.642;13.756;2023-04-24T13:07:02;21.90;60.90
15609;DHT22;64278;45.642;13.756;2023-04-24T13:09:28;21.80;60.90
15609;DHT22;64278;45.642;13.756;2023-04-24T13:11:54;21.90;61.10
15609;DHT22;64278;45.642;13.756;2023-04-24T13:14:22;21.80;61.00
15609;DHT22;64278;45.642;13.756;2023-04-24T13:16:47;21.90;61.20
15609;DHT22;64278;45.642;13.756;2023-04-24T13:19:13;21.90;61.20
15609;DHT22;64278;45.642;13.756;2023-04-24T13:21:39;21.90;61.20
15609;DHT22;64278;45.642;13.756;2023-04-24T13:24:04;21.80;61.20
15609;DHT22;64278;45.642;13.756;2023-04-24T13:26:33;21.80;61.20
15609;DHT22;64278;45.642;13.756;2023-04-24T13:28:59;21.80;61.20
15609;DHT22;64278;45.642;13.756;2023-04-24T13:31:24;21.80;61.20
15609;DHT22;64278;45.642;13.756;2023-04-24T13:33:50;21.80;61.20
15609;DHT22;64278;45.642;13.756;2023-04-24T13:36:16;21.90;61.30
15609;DHT22;64278;45.642;13.756;2023-04-24T13:38:44;21.80;61.20
15609;DHT22;64278;45.642;13.756;2023-04-24T13:41:10;21.80;61.30
15609;DHT22;64278;45.642;13.756;2023-04-24T13:43:36;21.80;61.20
15609;DHT22;64278;45.642;13.756;2023-04-24T13:46:02;21.80;61.20
15609;DHT22;64278;45.642;13.756;2023-04-24T13:48:29;21.80;61.20
15609;DHT22;64278;45.642;13.756;2023-04-24T13:50:55;21.80;61.20
15609;DHT22;64278;45.642;13.756;2023-04-24T13:53:21;21.80;61.20
15609;DHT22;64278;45.642;13.756;2023-04-24T13:55:47;21.80;61.20
15609;DHT22;64278;45.642;13.756;2023-04-24T13:58:13;21.80;61.30
15609;DHT22;64278;45.642;13.756;2023-04-24T14:00:39;21.80;61.30
15609;DHT22;64278;45.642;13.756;2023-04-24T14:03:04;21.80;61.30
15609;DHT22;64278;45.642;13.756;2023-04-24T14:05:30;21.80;61.30
15609;DHT22;64278;45.642;13.756;2023-04-24T14:07:56;21.80;61.30
15609;DHT22;64278;45.642;13.756;2023-04-24T14:10:21;21.80;61.30
15609;DHT22;64278;45.642;13.756;2023-04-24T14:12:47;21.80;61.30
15609;DHT22;64278;45.642;13.756;2023-04-24T14:15:13;21.80;61.20
15609;DHT22;64278;45.642;13.756;2023-04-24T14:17:39;21.80;61.30
15609;DHT22;64278;45.642;13.756;2023-04-24T14:20:05;21.80;61.20
15609;DHT22;64278;45.642;13.756;2023-04-24T14:22:32;21.80;61.20
15609;DHT22;64278;45.642;13.756;2023-04-24T14:24:58;21.80;61.20
15609;DHT22;64278;45.642;13.756;2023-04-24T14:27:24;21.80;61.20
15609;DHT22;64278;45.642;13.756;2023-04-24T14:29:51;21.80;61.00
15609;DHT22;64278;45.642;13.756;2023-04-24T14:32:17;21.80;61.10
15609;DHT22;64278;45.642;13.756;2023-04-24T14:34:43;21.80;61.00
15609;DHT22;64278;45.642;13.756;2023-04-24T14:37:08;21.80;61.00
15609;DHT22;64278;45.642;13.756;2023-04-24T14:39:34;21.80;61.00
15609;DHT22;64278;45.642;13.756;2023-04-24T14:42:00;21.80;61.00
15609;DHT22;64278;45.642;13.756;2023-04-24T14:44:26;21.80;61.00
15609;DHT22;64278;45.642;13.756;2023-04-24T14:46:52;21.80;61.00
15609;DHT22;64278;45.642;13.756;2023-04-24T14:49:18;21.80;61.00
15609;DHT22;64278;45.642;13.756;2023-04-24T14:51:44;21.80;60.90
15609;DHT22;64278;45.642;13.756;2023-04-24T14:54:10;21.80;60.90
15609;DHT22;64278;45.642;13.756;2023-04-24T14:56:35;21.80;60.90
15609;DHT22;64278;45.642;13.756;2023-04-24T14:59:01;21.80;60.90
15609;DHT22;64278;45.642;13.756;2023-04-24T15:01:27;21.80;60.90
15609;DHT22;64278;45.642;13.756;2023-04-24T15:03:53;21.80;61.00
15609;DHT22;64278;45.642;13.756;2023-04-24T15:06:19;21.80;60.90
15609;DHT22;64278;45.642;13.756;2023-04-24T15:08:45;21.80;60.80
15609;DHT22;64278;45.642;13.756;2023-04-24T15:11:11;21.80;60.70
15609;DHT22;64278;45.642;13.756;2023-04-24T15:13:37;21.80;60.60
15609;DHT22;64278;45.642;13.756;2023-04-24T15:16:03;21.80;60.60
15609;DHT22;64278;45.642;13.756;2023-04-24T15:18:29;21.80;60.70
15609;DHT22;64278;45.642;13.756;2023-04-24T15:20:55;21.80;60.60